sensor_id;sensor_type;location;lat;lon;timestamp;P1;durP1;ratioP1;P2;durP2;ratioP2
14883;SDS011;7534;50.762;7.000;2023-09-19T00:00:45;1999.90;;;534.15;;
14883;SDS011;7534;50.762;7.000;2023-09-19T00:03:14;1999.90;;;638.65;;
14883;SDS011;7534;50.762;7.000;2023-09-19T00:05:41;1999.90;;;637.10;;
14883;SDS011;7534;50.762;7.000;2023-09-19T00:08:10;1999.90;;;630.95;;
14883;SDS011;7534;50.762;7.000;2023-09-19T00:10:35;1999.90;;;637.97;;
14883;SDS011;7534;50.762;7.000;2023-09-19T00:13:02;1999.90;;;551.50;;
14883;SDS011;7534;50.762;7.000;2023-09-19T00:15:36;1999.90;;;571.08;;
14883;SDS011;7534;50.762;7.000;2023-09-19T00:18:07;1999.90;;;582.00;;
14883;SDS011;7534;50.762;7.000;2023-09-19T00:20:37;1999.90;;;722.25;;
14883;SDS011;7534;50.762;7.000;2023-09-19T00:23:04;1999.90;;;607.67;;
14883;SDS011;7534;50.762;7.000;2023-09-19T00:25:37;1999.90;;;648.60;;
14883;SDS011;7534;50.762;7.000;2023-09-19T00:28:03;1999.90;;;503.73;;
14883;SDS011;7534;50.762;7.000;2023-09-19T00:30:31;1999.90;;;516.20;;
14883;SDS011;7534;50.762;7.000;2023-09-19T00:32:58;1999.90;;;725.22;;
14883;SDS011;7534;50.762;7.000;2023-09-19T00:35:23;1999.90;;;521.75;;
14883;SDS011;7534;50.762;7.000;2023-09-19T00:37:50;1999.90;;;731.80;;
14883;SDS011;7534;50.762;7.000;2023-09-19T00:40:16;1999.90;;;547.25;;
14883;SDS011;7534;50.762;7.000;2023-09-19T00:42:43;1999.90;;;622.03;;
14883;SDS011;7534;50.762;7.000;2023-09-19T00:45:12;1999.90;;;564.60;;
14883;SDS011;7534;50.762;7.000;2023-09-19T00:47:49;1999.90;;;576.97;;
14883;SDS011;7534;50.762;7.000;2023-09-19T00:50:21;1999.90;;;654.70;;
14883;SDS011;7534;50.762;7.000;2023-09-19T00:52:50;1999.90;;;748.53;;
14883;SDS011;7534;50.762;7.000;2023-09-19T00:55:23;1999.90;;;732.40;;
14883;SDS011;7534;50.762;7.000;2023-09-19T00:57:50;1999.90;;;597.78;;
14883;SDS011;7534;50.762;7.000;2023-09-19T01:00:16;1999.90;;;744.78;;
14883;SDS011;7534;50.762;7.000;2023-09-19T01:02:45;1999.90;;;628.40;;
14883;SDS011;7534;50.762;7.000;2023-09-19T01:05:11;1999.90;;;522.22;;
14883;SDS011;7534;50.762;7.000;2023-09-19T01:07:38;1999.90;;;687.25;;
14883;SDS011;7534;50.762;7.000;2023-09-19T01:10:05;1999.90;;;659.47;;
14883;SDS011;7534;50.762;7.000;2023-09-19T01:12:41;1999.90;;;736.83;;
14883;SDS011;7534;50.762;7.000;2023-09-19T01:15:47;1999.90;;;641.00;;
14883;SDS011;7534;50.762;7.000;2023-09-19T01:19:01;1999.90;;;810.67;;
14883;SDS011;7534;50.762;7.000;2023-09-19T01:21:59;325.42;;;106.07;;
14883;SDS011;7534;50.762;7.000;2023-09-19T01:24:54;1042.15;;;258.50;;
14883;SDS011;7534;50.762;7.000;2023-09-19T01:28:06;1999.90;;;472.43;;
14883;SDS011;7534;50.762;7.000;2023-09-19T01:30:49;1999.90;;;512.83;;
14883;SDS011;7534;50.762;7.000;2023-09-19T01:33:25;925.42;;;233.73;;
14883;SDS011;7534;50.762;7.000;2023-09-19T01:35:59;685.45;;;184.25;;
14883;SDS011;7534;50.762;7.000;2023-09-19T01:38:24;1999.90;;;571.42;;
14883;SDS011;7534;50.762;7.000;2023-09-19T01:40:57;1999.90;;;675.92;;
14883;SDS011;7534;50.762;7.000;2023-09-19T01:43:38;1999.90;;;701.28;;
14883;SDS011;7534;50.762;7.000;2023-09-19T01:46:09;1999.90;;;732.10;;
14883;SDS011;7534;50.762;7.000;2023-09-19T01:51:44;1999.90;;;750.25;;
14883;SDS011;7534;50.762;7.000;2023-09-19T01:54:27;1999.90;;;799.87;;
14883;SDS011;7534;50.762;7.000;2023-09-19T01:57:07;1999.90;;;821.57;;
14883;SDS011;7534;50.762;7.000;2023-09-19T01:59:50;1999.90;;;745.13;;
14883;SDS011;7534;50.762;7.000;2023-09-19T02:02:22;1999.90;;;569.65;;
14883;SDS011;7534;50.762;7.000;2023-09-19T02:04:50;1999.90;;;537.88;;
14883;SDS011;7534;50.762;7.000;2023-09-19T02:07:16;1999.90;;;818.10;;
14883;SDS011;7534;50.762;7.000;2023-09-19T02:09:42;1999.90;;;652.50;;
14883;SDS011;7534;50.762;7.000;2023-09-19T02:12:10;1999.90;;;566.03;;
14883;SDS011;7534;50.762;7.000;2023-09-19T02:14:36;1999.90;;;556.22;;
14883;SDS011;7534;50.762;7.000;2023-09-19T02:17:03;1999.90;;;628.95;;
14883;SDS011;7534;50.762;7.000;2023-09-19T02:19:32;1999.90;;;636.40;;
14883;SDS011;7534;50.762;7.000;2023-09-19T02:21:58;1999.90;;;773.30;;
14883;SDS011;7534;50.762;7.000;2023-09-19T02:24:28;1999.90;;;615.17;;
14883;SDS011;7534;50.762;7.000;2023-09-19T02:26:54;1999.90;;;816.33;;
14883;SDS011;7534;50.762;7.000;2023-09-19T02:29:20;1999.90;;;746.70;;
14883;SDS011;7534;50.762;7.000;2023-09-19T02:31:47;1999.90;;;833.78;;
14883;SDS011;7534;50.762;7.000;2023-09-19T02:34:13;1999.90;;;732.33;;
14883;SDS011;7534;50.762;7.000;2023-09-19T02:36:41;1999.90;;;837.10;;
14883;SDS011;7534;50.762;7.000;2023-09-19T02:39:09;1999.90;;;790.08;;
14883;SDS011;7534;50.762;7.000;2023-09-19T02:41:36;1999.90;;;803.58;;
14883;SDS011;7534;50.762;7.000;2023-09-19T02:44:02;1999.90;;;730.13;;
14883;SDS011;7534;50.762;7.000;2023-09-19T02:46:28;1999.90;;;663.03;;
14883;SDS011;7534;50.762;7.000;2023-09-19T02:48:53;1999.90;;;748.70;;
14883;SDS011;7534;50.762;7.000;2023-09-19T02:51:19;1999.90;;;796.92;;
14883;SDS011;7534;50.762;7.000;2023-09-19T02:53:45;1999.90;;;813.88;;
14883;SDS011;7534;50.762;7.000;2023-09-19T02:56:12;1999.90;;;866.75;;
14883;SDS011;7534;50.762;7.000;2023-09-19T02:58:38;1999.90;;;842.88;;
14883;SDS011;7534;50.762;7.000;2023-09-19T03:01:07;1999.90;;;696.80;;
14883;SDS011;7534;50.762;7.000;2023-09-19T03:03:37;1999.90;;;835.83;;
14883;SDS011;7534;50.762;7.000;2023-09-19T03:06:04;1999.90;;;890.58;;
14883;SDS011;7534;50.762;7.000;2023-09-19T03:08:30;1999.90;;;821.33;;
14883;SDS011;7534;50.762;7.000;2023-09-19T03:11:03;1999.90;;;839.20;;
14883;SDS011;7534;50.762;7.000;2023-09-19T03:13:30;1999.90;;;795.23;;
14883;SDS011;7534;50.762;7.000;2023-09-19T03:16:01;1999.90;;;840.67;;
14883;SDS011;7534;50.762;7.000;2023-09-19T03:18:30;1999.90;;;838.25;;
14883;SDS011;7534;50.762;7.000;2023-09-19T03:20:56;1999.90;;;900.85;;
14883;SDS011;7534;50.762;7.000;2023-09-19T03:23:26;1999.90;;;887.05;;
14883;SDS011;7534;50.762;7.000;2023-09-19T03:25:56;1999.90;;;872.90;;
14883;SDS011;7534;50.762;7.000;2023-09-19T03:28:23;1999.90;;;892.60;;
14883;SDS011;7534;50.762;7.000;2023-09-19T03:31:02;1999.90;;;812.17;;
14883;SDS011;7534;50.762;7.000;2023-09-19T03:33:31;1999.90;;;853.83;;
14883;SDS011;7534;50.762;7.000;2023-09-19T03:35:58;1999.90;;;880.80;;
14883;SDS011;7534;50.762;7.000;2023-09-19T03:38:25;1999.90;;;885.20;;
14883;SDS011;7534;50.762;7.000;2023-09-19T03:40:54;1999.90;;;881.88;;
14883;SDS011;7534;50.762;7.000;2023-09-19T03:43:20;1999.90;;;817.97;;
14883;SDS011;7534;50.762;7.000;2023-09-19T03:45:45;1999.90;;;840.77;;
14883;SDS011;7534;50.762;7.000;2023-09-19T03:48:11;1999.90;;;841.50;;
14883;SDS011;7534;50.762;7.000;2023-09-19T03:50:38;1999.90;;;827.77;;
14883;SDS011;7534;50.762;7.000;2023-09-19T03:53:07;149.10;;;61.67;;
14883;SDS011;7534;50.762;7.000;2023-09-19T03:55:35;944.00;;;237.70;;
14883;SDS011;7534;50.762;7.000;2023-09-19T03:58:03;1999.90;;;669.38;;
14883;SDS011;7534;50.762;7.000;2023-09-19T04:00:29;1999.90;;;612.43;;
14883;SDS011;7534;50.762;7.000;2023-09-19T04:02:55;1999.90;;;737.10;;
14883;SDS011;7534;50.762;7.000;2023-09-19T04:05:22;1999.90;;;818.42;;
14883;SDS011;7534;50.762;7.000;2023-09-19T04:07:48;1999.90;;;803.35;;
14883;SDS011;7534;50.762;7.000;2023-09-19T04:10:15;1999.90;;;725.60;;
14883;SDS011;7534;50.762;7.000;2023-09-19T04:12:50;1999.90;;;791.63;;
14883;SDS011;7534;50.762;7.000;2023-09-19T04:15:20;1999.90;;;848.60;;
14883;SDS011;7534;50.762;7.000;2023-09-19T04:17:49;1999.90;;;774.45;;
14883;SDS011;7534;50.762;7.000;2023-09-19T04:20:16;1999.90;;;810.35;;
14883;SDS011;7534;50.762;7.000;2023-09-19T04:22:47;1999.90;;;713.45;;
14883;SDS011;7534;50.762;7.000;2023-09-19T04:25:13;1999.90;;;743.20;;
14883;SDS011;7534;50.762;7.000;2023-09-19T04:27:39;1999.90;;;874.10;;
14883;SDS011;7534;50.762;7.000;2023-09-19T04:30:06;1999.90;;;658.60;;
14883;SDS011;7534;50.762;7.000;2023-09-19T04:32:37;1999.90;;;742.78;;
14883;SDS011;7534;50.762;7.000;2023-09-19T04:35:05;1999.90;;;843.85;;
14883;SDS011;7534;50.762;7.000;2023-09-19T04:37:38;1999.90;;;891.47;;
14883;SDS011;7534;50.762;7.000;2023-09-19T04:40:07;1999.90;;;886.40;;
14883;SDS011;7534;50.762;7.000;2023-09-19T04:42:37;1999.90;;;941.88;;
14883;SDS011;7534;50.762;7.000;2023-09-19T04:45:05;1999.90;;;906.38;;
14883;SDS011;7534;50.762;7.000;2023-09-19T04:47:32;1999.90;;;924.80;;
14883;SDS011;7534;50.762;7.000;2023-09-19T04:49:57;1999.90;;;875.55;;
14883;SDS011;7534;50.762;7.000;2023-09-19T04:52:24;1999.90;;;972.90;;
14883;SDS011;7534;50.762;7.000;2023-09-19T04:54:50;1999.90;;;933.95;;
14883;SDS011;7534;50.762;7.000;2023-09-19T04:57:15;1999.90;;;869.42;;
14883;SDS011;7534;50.762;7.000;2023-09-19T04:59:41;1999.90;;;912.88;;
14883;SDS011;7534;50.762;7.000;2023-09-19T05:02:07;1999.90;;;828.22;;
14883;SDS011;7534;50.762;7.000;2023-09-19T05:04:35;1999.90;;;877.77;;
14883;SDS011;7534;50.762;7.000;2023-09-19T05:07:02;1999.90;;;898.47;;
14883;SDS011;7534;50.762;7.000;2023-09-19T05:09:28;1999.90;;;880.35;;
14883;SDS011;7534;50.762;7.000;2023-09-19T05:11:54;1999.90;;;857.63;;
14883;SDS011;7534;50.762;7.000;2023-09-19T05:14:22;1999.90;;;667.70;;
14883;SDS011;7534;50.762;7.000;2023-09-19T05:16:49;1999.90;;;714.05;;
14883;SDS011;7534;50.762;7.000;2023-09-19T05:19:16;1999.90;;;780.60;;
14883;SDS011;7534;50.762;7.000;2023-09-19T05:21:44;1999.90;;;760.97;;
14883;SDS011;7534;50.762;7.000;2023-09-19T05:24:09;1999.90;;;822.57;;
14883;SDS011;7534;50.762;7.000;2023-09-19T05:26:36;1999.90;;;968.83;;
14883;SDS011;7534;50.762;7.000;2023-09-19T05:29:02;1999.90;;;892.97;;
14883;SDS011;7534;50.762;7.000;2023-09-19T05:31:28;1999.90;;;876.83;;
14883;SDS011;7534;50.762;7.000;2023-09-19T05:33:54;1999.90;;;871.35;;
14883;SDS011;7534;50.762;7.000;2023-09-19T05:36:20;1999.90;;;909.17;;
14883;SDS011;7534;50.762;7.000;2023-09-19T05:38:46;15.27;;;13.67;;
14883;SDS011;7534;50.762;7.000;2023-09-19T05:41:14;28.70;;;21.88;;
14883;SDS011;7534;50.762;7.000;2023-09-19T05:43:41;5.73;;;2.23;;
14883;SDS011;7534;50.762;7.000;2023-09-19T05:46:07;5.93;;;2.57;;
14883;SDS011;7534;50.762;7.000;2023-09-19T05:48:33;8.60;;;2.23;;
14883;SDS011;7534;50.762;7.000;2023-09-19T05:50:59;5.67;;;2.20;;
14883;SDS011;7534;50.762;7.000;2023-09-19T05:53:27;6.83;;;2.20;;
14883;SDS011;7534;50.762;7.000;2023-09-19T05:55:53;6.93;;;2.03;;
14883;SDS011;7534;50.762;7.000;2023-09-19T05:58:20;6.30;;;2.30;;
14883;SDS011;7534;50.762;7.000;2023-09-19T06:00:46;8.53;;;2.20;;
14883;SDS011;7534;50.762;7.000;2023-09-19T06:03:14;6.77;;;2.27;;
14883;SDS011;7534;50.762;7.000;2023-09-19T06:05:40;6.83;;;2.20;;
14883;SDS011;7534;50.762;7.000;2023-09-19T06:08:06;7.33;;;2.20;;
14883;SDS011;7534;50.762;7.000;2023-09-19T06:10:35;4.50;;;1.90;;
14883;SDS011;7534;50.762;7.000;2023-09-19T06:13:04;7.50;;;2.30;;
14883;SDS011;7534;50.762;7.000;2023-09-19T06:15:31;5.33;;;2.00;;
14883;SDS011;7534;50.762;7.000;2023-09-19T06:17:58;6.17;;;1.70;;
14883;SDS011;7534;50.762;7.000;2023-09-19T06:20:27;7.93;;;2.65;;
14883;SDS011;7534;50.762;7.000;2023-09-19T06:22:53;141.20;;;60.40;;
14883;SDS011;7534;50.762;7.000;2023-09-19T06:25:20;489.75;;;148.50;;
14883;SDS011;7534;50.762;7.000;2023-09-19T06:30:22;762.25;;;208.40;;
14883;SDS011;7534;50.762;7.000;2023-09-19T06:32:55;810.78;;;220.57;;
14883;SDS011;7534;50.762;7.000;2023-09-19T06:35:22;1408.40;;;335.92;;
14883;SDS011;7534;50.762;7.000;2023-09-19T06:37:49;1423.15;;;335.05;;
14883;SDS011;7534;50.762;7.000;2023-09-19T06:40:16;1526.57;;;356.30;;
14883;SDS011;7534;50.762;7.000;2023-09-19T06:42:43;1999.90;;;447.65;;
14883;SDS011;7534;50.762;7.000;2023-09-19T06:45:17;1470.30;;;344.67;;
14883;SDS011;7534;50.762;7.000;2023-09-19T06:47:47;1123.87;;;281.70;;
14883;SDS011;7534;50.762;7.000;2023-09-19T06:50:15;1397.78;;;332.63;;
14883;SDS011;7534;50.762;7.000;2023-09-19T06:52:47;1944.10;;;430.88;;
14883;SDS011;7534;50.762;7.000;2023-09-19T06:55:19;1686.60;;;382.48;;
14883;SDS011;7534;50.762;7.000;2023-09-19T06:57:49;1370.00;;;329.65;;
14883;SDS011;7534;50.762;7.000;2023-09-19T07:00:16;1402.32;;;335.40;;
14883;SDS011;7534;50.762;7.000;2023-09-19T07:03:02;1845.85;;;417.60;;
14883;SDS011;7534;50.762;7.000;2023-09-19T07:05:33;1890.75;;;428.40;;
14883;SDS011;7534;50.762;7.000;2023-09-19T07:08:04;831.53;;;220.83;;
14883;SDS011;7534;50.762;7.000;2023-09-19T07:10:31;1999.90;;;473.35;;
14883;SDS011;7534;50.762;7.000;2023-09-19T07:12:59;1999.90;;;469.75;;
14883;SDS011;7534;50.762;7.000;2023-09-19T07:15:34;1999.90;;;509.65;;
14883;SDS011;7534;50.762;7.000;2023-09-19T07:18:26;1999.90;;;507.95;;
14883;SDS011;7534;50.762;7.000;2023-09-19T07:20:56;1999.90;;;474.67;;
14883;SDS011;7534;50.762;7.000;2023-09-19T07:23:29;1999.90;;;467.23;;
14883;SDS011;7534;50.762;7.000;2023-09-19T07:26:00;1999.90;;;621.10;;
14883;SDS011;7534;50.762;7.000;2023-09-19T07:28:26;1999.90;;;681.83;;
14883;SDS011;7534;50.762;7.000;2023-09-19T07:30:53;1999.90;;;561.97;;
14883;SDS011;7534;50.762;7.000;2023-09-19T07:33:19;1999.90;;;533.57;;
14883;SDS011;7534;50.762;7.000;2023-09-19T07:35:45;1892.32;;;429.48;;
14883;SDS011;7534;50.762;7.000;2023-09-19T07:38:12;844.00;;;190.30;;
14883;SDS011;7534;50.762;7.000;2023-09-19T07:40:38;1239.10;;;309.97;;
14883;SDS011;7534;50.762;7.000;2023-09-19T07:43:04;1999.90;;;473.88;;
14883;SDS011;7534;50.762;7.000;2023-09-19T07:45:31;1999.90;;;622.08;;
14883;SDS011;7534;50.762;7.000;2023-09-19T07:47:57;1999.90;;;573.03;;
14883;SDS011;7534;50.762;7.000;2023-09-19T07:50:32;1999.90;;;549.97;;
14883;SDS011;7534;50.762;7.000;2023-09-19T07:53:02;1999.90;;;547.65;;
14883;SDS011;7534;50.762;7.000;2023-09-19T07:55:30;1999.90;;;517.08;;
14883;SDS011;7534;50.762;7.000;2023-09-19T07:57:55;1999.90;;;620.33;;
14883;SDS011;7534;50.762;7.000;2023-09-19T08:00:22;1999.90;;;692.08;;
14883;SDS011;7534;50.762;7.000;2023-09-19T08:02:48;1999.90;;;671.67;;
14883;SDS011;7534;50.762;7.000;2023-09-19T08:05:13;1999.90;;;584.17;;
14883;SDS011;7534;50.762;7.000;2023-09-19T08:07:44;1999.90;;;676.57;;
14883;SDS011;7534;50.762;7.000;2023-09-19T08:10:14;1999.90;;;646.00;;
14883;SDS011;7534;50.762;7.000;2023-09-19T08:12:44;1999.90;;;644.45;;
14883;SDS011;7534;50.762;7.000;2023-09-19T08:15:15;1999.90;;;692.90;;
14883;SDS011;7534;50.762;7.000;2023-09-19T08:17:45;1999.90;;;673.35;;
14883;SDS011;7534;50.762;7.000;2023-09-19T08:20:12;1999.90;;;756.80;;
14883;SDS011;7534;50.762;7.000;2023-09-19T08:22:48;1718.07;;;405.67;;
14883;SDS011;7534;50.762;7.000;2023-09-19T08:25:22;1999.90;;;485.80;;
14883;SDS011;7534;50.762;7.000;2023-09-19T08:27:50;1478.93;;;359.88;;
14883;SDS011;7534;50.762;7.000;2023-09-19T08:30:16;1999.90;;;521.53;;
14883;SDS011;7534;50.762;7.000;2023-09-19T08:32:48;1999.90;;;728.20;;
14883;SDS011;7534;50.762;7.000;2023-09-19T08:35:24;1999.90;;;690.97;;
14883;SDS011;7534;50.762;7.000;2023-09-19T08:37:50;1999.90;;;574.45;;
14883;SDS011;7534;50.762;7.000;2023-09-19T08:40:16;1999.90;;;646.95;;
14883;SDS011;7534;50.762;7.000;2023-09-19T08:45:22;1999.90;;;498.13;;
14883;SDS011;7534;50.762;7.000;2023-09-19T08:56:36;1999.90;;;786.40;;
14883;SDS011;7534;50.762;7.000;2023-09-19T08:59:05;1999.90;;;764.17;;
14883;SDS011;7534;50.762;7.000;2023-09-19T09:01:36;1999.90;;;864.33;;
14883;SDS011;7534;50.762;7.000;2023-09-19T09:04:04;1999.90;;;882.33;;
14883;SDS011;7534;50.762;7.000;2023-09-19T09:06:34;529.47;;;149.10;;
14883;SDS011;7534;50.762;7.000;2023-09-19T09:09:02;30.87;;;24.50;;
14883;SDS011;7534;50.762;7.000;2023-09-19T09:11:28;1285.90;;;319.70;;
14883;SDS011;7534;50.762;7.000;2023-09-19T09:13:57;1765.55;;;408.27;;
14883;SDS011;7534;50.762;7.000;2023-09-19T09:16:23;1747.40;;;406.20;;
14883;SDS011;7534;50.762;7.000;2023-09-19T09:18:51;1818.05;;;420.92;;
14883;SDS011;7534;50.762;7.000;2023-09-19T09:21:19;189.20;;;72.60;;
14883;SDS011;7534;50.762;7.000;2023-09-19T09:23:50;685.40;;;193.85;;
14883;SDS011;7534;50.762;7.000;2023-09-19T09:26:40;1999.90;;;493.52;;
14883;SDS011;7534;50.762;7.000;2023-09-19T09:29:05;1999.90;;;591.05;;
14883;SDS011;7534;50.762;7.000;2023-09-19T09:31:30;1999.90;;;799.45;;
14883;SDS011;7534;50.762;7.000;2023-09-19T09:33:57;326.13;;;105.88;;
14883;SDS011;7534;50.762;7.000;2023-09-19T09:36:36;639.97;;;178.88;;
14883;SDS011;7534;50.762;7.000;2023-09-19T09:39:06;1999.90;;;567.25;;
14883;SDS011;7534;50.762;7.000;2023-09-19T09:41:41;1826.43;;;419.47;;
14883;SDS011;7534;50.762;7.000;2023-09-19T09:44:15;1999.90;;;518.57;;
14883;SDS011;7534;50.762;7.000;2023-09-19T09:46:45;1999.90;;;612.55;;
14883;SDS011;7534;50.762;7.000;2023-09-19T09:49:25;1999.90;;;747.33;;
14883;SDS011;7534;50.762;7.000;2023-09-19T09:55:04;1999.90;;;641.65;;
14883;SDS011;7534;50.762;7.000;2023-09-19T09:57:33;1999.90;;;770.50;;
14883;SDS011;7534;50.762;7.000;2023-09-19T10:00:00;1999.90;;;677.05;;
14883;SDS011;7534;50.762;7.000;2023-09-19T10:02:37;1999.90;;;800.80;;
14883;SDS011;7534;50.762;7.000;2023-09-19T10:07:53;1999.90;;;739.53;;
14883;SDS011;7534;50.762;7.000;2023-09-19T10:10:37;1999.90;;;833.30;;
14883;SDS011;7534;50.762;7.000;2023-09-19T10:13:07;1999.90;;;775.33;;
14883;SDS011;7534;50.762;7.000;2023-09-19T10:15:37;1999.90;;;670.13;;
14883;SDS011;7534;50.762;7.000;2023-09-19T10:18:06;4.03;;;2.20;;
14883;SDS011;7534;50.762;7.000;2023-09-19T10:20:44;3.08;;;2.00;;
14883;SDS011;7534;50.762;7.000;2023-09-19T10:23:11;4.25;;;1.92;;
14883;SDS011;7534;50.762;7.000;2023-09-19T10:25:39;5.35;;;2.17;;
14883;SDS011;7534;50.762;7.000;2023-09-19T10:28:11;5.55;;;2.03;;
14883;SDS011;7534;50.762;7.000;2023-09-19T10:30:44;4.65;;;1.92;;
14883;SDS011;7534;50.762;7.000;2023-09-19T10:33:16;4.80;;;1.80;;
14883;SDS011;7534;50.762;7.000;2023-09-19T10:35:47;6.40;;;2.10;;
14883;SDS011;7534;50.762;7.000;2023-09-19T10:38:19;4.85;;;1.98;;
14883;SDS011;7534;50.762;7.000;2023-09-19T10:40:52;4.35;;;1.88;;
14883;SDS011;7534;50.762;7.000;2023-09-19T10:43:20;3.90;;;1.85;;
14883;SDS011;7534;50.762;7.000;2023-09-19T10:45:54;3.45;;;1.90;;
14883;SDS011;7534;50.762;7.000;2023-09-19T10:48:29;4.68;;;2.13;;
14883;SDS011;7534;50.762;7.000;2023-09-19T10:50:58;127.28;;;57.92;;
14883;SDS011;7534;50.762;7.000;2023-09-19T10:53:47;514.33;;;152.68;;
14883;SDS011;7534;50.762;7.000;2023-09-19T10:56:27;919.53;;;247.38;;
14883;SDS011;7534;50.762;7.000;2023-09-19T10:59:10;977.75;;;254.95;;
14883;SDS011;7534;50.762;7.000;2023-09-19T11:01:41;979.93;;;256.03;;
14883;SDS011;7534;50.762;7.000;2023-09-19T11:04:35;1520.18;;;356.88;;
14883;SDS011;7534;50.762;7.000;2023-09-19T11:07:13;929.03;;;243.37;;
14883;SDS011;7534;50.762;7.000;2023-09-19T11:09:53;1138.30;;;287.38;;
14883;SDS011;7534;50.762;7.000;2023-09-19T11:15:00;1914.72;;;429.77;;
14883;SDS011;7534;50.762;7.000;2023-09-19T11:30:31;1826.93;;;414.10;;
14883;SDS011;7534;50.762;7.000;2023-09-19T11:36:06;1999.90;;;671.88;;
14883;SDS011;7534;50.762;7.000;2023-09-19T11:43:47;1914.65;;;432.95;;
14883;SDS011;7534;50.762;7.000;2023-09-19T11:46:15;1999.90;;;578.78;;
14883;SDS011;7534;50.762;7.000;2023-09-19T11:48:47;1999.90;;;689.53;;
14883;SDS011;7534;50.762;7.000;2023-09-19T11:51:15;1999.90;;;507.40;;
14883;SDS011;7534;50.762;7.000;2023-09-19T11:53:51;5.20;;;1.98;;
14883;SDS011;7534;50.762;7.000;2023-09-19T11:56:20;5.97;;;2.40;;
14883;SDS011;7534;50.762;7.000;2023-09-19T11:58:49;3.92;;;1.88;;
14883;SDS011;7534;50.762;7.000;2023-09-19T12:01:32;4.88;;;1.80;;
14883;SDS011;7534;50.762;7.000;2023-09-19T12:04:00;4.00;;;2.10;;
14883;SDS011;7534;50.762;7.000;2023-09-19T12:06:29;4.82;;;2.17;;
14883;SDS011;7534;50.762;7.000;2023-09-19T12:08:57;3.30;;;1.77;;
14883;SDS011;7534;50.762;7.000;2023-09-19T12:11:29;4.35;;;1.90;;
14883;SDS011;7534;50.762;7.000;2023-09-19T12:14:01;4.97;;;2.15;;
14883;SDS011;7534;50.762;7.000;2023-09-19T12:16:28;3.92;;;1.92;;
14883;SDS011;7534;50.762;7.000;2023-09-19T12:18:55;3.55;;;1.90;;
14883;SDS011;7534;50.762;7.000;2023-09-19T12:21:26;3.47;;;1.80;;
14883;SDS011;7534;50.762;7.000;2023-09-19T12:26:41;5.78;;;2.15;;
14883;SDS011;7534;50.762;7.000;2023-09-19T12:29:15;5.38;;;2.25;;
14883;SDS011;7534;50.762;7.000;2023-09-19T12:31:51;4.60;;;2.95;;
14883;SDS011;7534;50.762;7.000;2023-09-19T12:34:30;346.45;;;112.15;;
14883;SDS011;7534;50.762;7.000;2023-09-19T12:37:03;585.67;;;161.65;;
14883;SDS011;7534;50.762;7.000;2023-09-19T12:39:45;4.68;;;1.95;;
14883;SDS011;7534;50.762;7.000;2023-09-19T12:42:14;4.72;;;1.67;;
14883;SDS011;7534;50.762;7.000;2023-09-19T12:44:43;3.22;;;1.75;;
14883;SDS011;7534;50.762;7.000;2023-09-19T12:47:15;3.08;;;1.77;;
14883;SDS011;7534;50.762;7.000;2023-09-19T13:00:43;5.30;;;1.88;;
14883;SDS011;7534;50.762;7.000;2023-09-19T13:06:08;1138.60;;;284.85;;
14883;SDS011;7534;50.762;7.000;2023-09-19T13:08:37;913.28;;;236.77;;
14883;SDS011;7534;50.762;7.000;2023-09-19T13:11:11;947.47;;;242.70;;
14883;SDS011;7534;50.762;7.000;2023-09-19T13:13:43;1341.60;;;321.70;;
14883;SDS011;7534;50.762;7.000;2023-09-19T13:16:13;1553.90;;;359.65;;
14883;SDS011;7534;50.762;7.000;2023-09-19T13:18:45;1685.28;;;381.23;;
14883;SDS011;7534;50.762;7.000;2023-09-19T13:21:16;1999.90;;;450.77;;
14883;SDS011;7534;50.762;7.000;2023-09-19T13:24:17;1512.57;;;351.00;;
14883;SDS011;7534;50.762;7.000;2023-09-19T13:26:45;1999.90;;;523.75;;
14883;SDS011;7534;50.762;7.000;2023-09-19T13:29:11;481.88;;;135.90;;
14883;SDS011;7534;50.762;7.000;2023-09-19T13:31:38;1849.97;;;409.60;;
14883;SDS011;7534;50.762;7.000;2023-09-19T13:34:06;1855.20;;;413.73;;
14883;SDS011;7534;50.762;7.000;2023-09-19T13:36:33;1999.90;;;480.33;;
14883;SDS011;7534;50.762;7.000;2023-09-19T13:38:59;1999.90;;;499.70;;
14883;SDS011;7534;50.762;7.000;2023-09-19T13:41:25;1999.90;;;592.70;;
14883;SDS011;7534;50.762;7.000;2023-09-19T13:43:51;1999.90;;;666.35;;
14883;SDS011;7534;50.762;7.000;2023-09-19T13:46:17;1999.90;;;573.13;;
14883;SDS011;7534;50.762;7.000;2023-09-19T13:48:50;1999.90;;;444.77;;
14883;SDS011;7534;50.762;7.000;2023-09-19T13:51:19;1999.90;;;457.10;;
14883;SDS011;7534;50.762;7.000;2023-09-19T13:53:48;1999.90;;;527.33;;
14883;SDS011;7534;50.762;7.000;2023-09-19T13:56:15;1999.90;;;538.25;;
14883;SDS011;7534;50.762;7.000;2023-09-19T13:58:41;1999.90;;;657.67;;
14883;SDS011;7534;50.762;7.000;2023-09-19T14:01:08;1999.90;;;730.50;;
14883;SDS011;7534;50.762;7.000;2023-09-19T14:03:41;1999.90;;;690.38;;
14883;SDS011;7534;50.762;7.000;2023-09-19T14:06:16;1999.90;;;737.28;;
14883;SDS011;7534;50.762;7.000;2023-09-19T14:08:43;1999.90;;;728.97;;
14883;SDS011;7534;50.762;7.000;2023-09-19T14:11:12;1999.90;;;790.03;;
14883;SDS011;7534;50.762;7.000;2023-09-19T14:13:39;1999.90;;;801.17;;
14883;SDS011;7534;50.762;7.000;2023-09-19T14:16:05;1999.90;;;671.70;;
14883;SDS011;7534;50.762;7.000;2023-09-19T14:18:34;1999.90;;;611.87;;
14883;SDS011;7534;50.762;7.000;2023-09-19T14:21:04;1999.90;;;735.92;;
14883;SDS011;7534;50.762;7.000;2023-09-19T14:23:37;11.25;;;4.72;;
14883;SDS011;7534;50.762;7.000;2023-09-19T14:26:03;2.30;;;1.30;;
14883;SDS011;7534;50.762;7.000;2023-09-19T14:28:30;2.17;;;1.30;;
14883;SDS011;7534;50.762;7.000;2023-09-19T14:31:03;3.88;;;1.48;;
14883;SDS011;7534;50.762;7.000;2023-09-19T14:33:35;1.73;;;1.08;;
14883;SDS011;7534;50.762;7.000;2023-09-19T14:36:02;2.63;;;1.20;;
14883;SDS011;7534;50.762;7.000;2023-09-19T14:38:31;2.40;;;1.40;;
14883;SDS011;7534;50.762;7.000;2023-09-19T14:40:59;2.28;;;1.50;;
14883;SDS011;7534;50.762;7.000;2023-09-19T14:43:30;2.38;;;1.30;;
14883;SDS011;7534;50.762;7.000;2023-09-19T14:45:57;2.88;;;1.45;;
14883;SDS011;7534;50.762;7.000;2023-09-19T14:48:28;2.70;;;1.30;;
14883;SDS011;7534;50.762;7.000;2023-09-19T14:50:54;5.00;;;1.58;;
14883;SDS011;7534;50.762;7.000;2023-09-19T14:53:20;4.28;;;1.38;;
14883;SDS011;7534;50.762;7.000;2023-09-19T14:55:46;3.33;;;1.30;;
14883;SDS011;7534;50.762;7.000;2023-09-19T14:58:13;336.02;;;109.32;;
14883;SDS011;7534;50.762;7.000;2023-09-19T15:00:39;903.88;;;238.05;;
14883;SDS011;7534;50.762;7.000;2023-09-19T15:03:05;923.65;;;236.52;;
14883;SDS011;7534;50.762;7.000;2023-09-19T15:05:31;1361.32;;;325.00;;
14883;SDS011;7534;50.762;7.000;2023-09-19T15:07:56;1361.60;;;323.83;;
14883;SDS011;7534;50.762;7.000;2023-09-19T15:10:23;1291.63;;;308.20;;
14883;SDS011;7534;50.762;7.000;2023-09-19T15:12:49;1964.33;;;435.20;;
14883;SDS011;7534;50.762;7.000;2023-09-19T15:15:15;1999.90;;;459.77;;
14883;SDS011;7534;50.762;7.000;2023-09-19T15:17:41;1999.90;;;499.77;;
14883;SDS011;7534;50.762;7.000;2023-09-19T15:20:07;1999.90;;;461.33;;
14883;SDS011;7534;50.762;7.000;2023-09-19T15:22:33;1999.90;;;583.60;;
14883;SDS011;7534;50.762;7.000;2023-09-19T15:25:02;1434.60;;;335.10;;
14883;SDS011;7534;50.762;7.000;2023-09-19T15:27:29;1999.90;;;629.15;;